TimeCST,TemperatureF,Dew PointF,Humidity,Sea Level PressureIn,VisibilityMPH,Wind Direction,Wind SpeedMPH,Gust SpeedMPH,PrecipitationIn,Events,Conditions,WindDirDegrees,DateUTC
12:58 AM,43.0,32.0,65,30.24,10.0,North,4.6,-,N/A,,Clear,350,2012-11-14 06:58:00
1:58 AM,39.0,33.1,79,30.24,10.0,North,4.6,-,N/A,,Clear,10,2012-11-14 07:58:00
2:58 AM,41.0,32.0,70,30.24,-9999.0,North,4.6,-,N/A,,Clear,360,2012-11-14 08:58:00
3:58 AM,39.0,33.1,79,30.24,-9999.0,North,4.6,-,N/A,,Partly Cloudy,10,2012-11-14 09:58:00
4:05 AM,41.0,33.8,76,30.24,-9999.0,NNE,4.6,-,N/A,,Partly Cloudy,20,2012-11-14 10:05:00
4:14 AM,41.0,33.8,76,30.24,-9999.0,NNE,4.6,-,N/A,,Mostly Cloudy,20,2012-11-14 10:14:00
4:58 AM,41.0,35.1,79,30.24,-9999.0,NNE,3.5,-,N/A,,Overcast,20,2012-11-14 10:58:00
5:58 AM,43.0,37.0,80,30.25,-9999.0,NNE,5.8,-,N/A,,Overcast,20,2012-11-14 11:58:00
6:05 AM,42.8,37.4,81,30.25,-9999.0,NNE,5.8,-,N/A,,Overcast,20,2012-11-14 12:05:00
6:58 AM,44.1,39.9,85,30.26,-9999.0,NNE,3.5,-,N/A,,Overcast,30,2012-11-14 12:58:00
7:58 AM,46.9,44.1,90,30.28,-9999.0,North,5.8,-,N/A,,Overcast,10,2012-11-14 13:58:00
8:27 AM,46.4,44.6,93,30.28,-9999.0,NNW,3.5,-,N/A,,Overcast,330,2012-11-14 14:27:00
8:58 AM,51.1,46.0,83,30.27,-9999.0,NNE,5.8,-,N/A,,Overcast,20,2012-11-14 14:58:00
9:46 AM,55.4,48.2,77,30.27,-9999.0,NE,8.1,-,N/A,,Overcast,40,2012-11-14 15:46:00
9:58 AM,55.9,48.9,77,30.27,10.0,NE,6.9,-,N/A,,Overcast,40,2012-11-14 15:58:00
10:58 AM,57.9,50.0,75,30.26,10.0,Variable,5.8,-,N/A,,Overcast,0,2012-11-14 16:58:00
11:58 AM,57.0,51.1,81,30.24,10.0,East,3.5,-,0.00,Rain,Light Rain,80,2012-11-14 17:58:00
12:58 PM,57.0,54.0,89,30.24,10.0,Calm,Calm,-,0.01,Rain,Light Rain,0,2012-11-14 18:58:00
1:43 PM,55.4,53.6,94,30.23,2.0,NE,3.5,-,0.00,Rain,Light Rain,40,2012-11-14 19:43:00
1:56 PM,57.2,53.6,88,30.22,3.0,NNE,5.8,-,0.00,,Overcast,20,2012-11-14 19:56:00
1:58 PM,55.9,54.0,93,30.22,3.0,NNE,6.9,-,0.00,,Overcast,20,2012-11-14 19:58:00
2:17 PM,55.4,53.6,94,30.22,5.0,NE,6.9,-,N/A,,Overcast,40,2012-11-14 20:17:00
2:36 PM,55.4,53.6,94,30.22,4.0,NNE,5.8,-,N/A,,Overcast,30,2012-11-14 20:36:00
2:58 PM,55.9,54.0,93,30.22,4.0,NNE,5.8,-,N/A,,Overcast,20,2012-11-14 20:58:00
3:58 PM,55.0,52.0,89,30.23,7.0,NNE,6.9,-,N/A,,Overcast,20,2012-11-14 21:58:00
4:15 PM,55.4,51.8,88,30.23,8.0,NNE,5.8,-,N/A,,Overcast,30,2012-11-14 22:15:00
4:20 PM,55.4,51.8,88,30.23,7.0,NNE,4.6,-,N/A,,Overcast,30,2012-11-14 22:20:00
4:58 PM,54.0,52.0,93,30.24,7.0,NNE,5.8,-,N/A,,Overcast,20,2012-11-14 22:58:00
5:22 PM,53.6,51.8,94,30.24,8.0,NNE,5.8,-,N/A,,Overcast,30,2012-11-14 23:22:00
5:29 PM,53.6,51.8,94,30.24,8.0,NNE,6.9,-,N/A,,Overcast,30,2012-11-14 23:29:00
5:36 PM,53.6,51.8,94,30.24,6.0,NNE,8.1,-,N/A,,Overcast,20,2012-11-14 23:36:00
5:40 PM,53.6,51.8,94,30.24,6.0,NNE,5.8,-,N/A,,Overcast,20,2012-11-14 23:40:00
5:58 PM,54.0,52.0,93,30.25,6.0,NNE,5.8,-,N/A,,Overcast,30,2012-11-14 23:58:00
6:04 PM,53.6,51.8,94,30.24,5.0,NNE,6.9,-,N/A,,Overcast,30,2012-11-15 00:04:00
6:30 PM,53.6,51.8,94,30.25,7.0,NE,5.8,-,N/A,,Overcast,40,2012-11-15 00:30:00
6:58 PM,54.0,51.1,90,30.25,8.0,NE,9.2,-,N/A,,Overcast,40,2012-11-15 00:58:00
7:45 PM,53.6,51.8,94,30.25,3.0,NE,6.9,-,N/A,,Overcast,40,2012-11-15 01:45:00
7:58 PM,53.1,52.0,96,30.26,2.5,NNE,6.9,-,N/A,,Overcast,30,2012-11-15 01:58:00
8:42 PM,53.6,51.8,94,30.26,3.0,NE,5.8,-,N/A,,Overcast,40,2012-11-15 02:42:00
8:58 PM,53.1,51.1,93,30.25,4.0,NE,5.8,-,N/A,,Overcast,40,2012-11-15 02:58:00
9:17 PM,53.6,51.8,94,30.25,2.5,NNE,6.9,-,N/A,,Overcast,30,2012-11-15 03:17:00
9:23 PM,53.6,51.8,94,30.25,3.0,NE,5.8,-,N/A,,Overcast,40,2012-11-15 03:23:00
9:58 PM,53.1,51.1,93,30.25,3.0,Variable,5.8,-,N/A,,Overcast,0,2012-11-15 03:58:00
10:58 PM,53.1,51.1,93,30.24,6.0,NE,4.6,-,N/A,,Overcast,50,2012-11-15 04:58:00
11:58 PM,52.0,50.0,93,30.23,7.0,NE,4.6,-,N/A,,Overcast,50,2012-11-15 05:58:00